Stocksfield, United Kingdom
Current Conditions -  °F | °C
As of 9:50 AM on Wednesday 26 Nov 2014 (Local Time) from EGNT Reporting Station
Light Rain Light Rain  
Wind Chill: 43°   Ceiling: 1800
Heat Index: 43°   Visibility: 1.2mi
Dew Point: 43°   Wind: 0mph
Humidity: 100%   Direction: NA
Pressure: 29.97"   Gusts: NA
Location:  54.95°N, 1.93°W
Report Text: EGNT 260950Z 00000KT 2000 -RA BR FEW006 BKN018 06/06 Q1015
Loading
Personal Weather Stations






























Interactive Weather Map New forecast layout! Learn more

10-Day Weather Forecast

Advertisements
Track Severe Weather on mobile